Time;durP1;ratioP1;P1;durP2;ratioP2;P2;SDS_P1;SDS_P2;PMS_P1;PMS_P2;Temp;Humidity;BMP_temperature;BMP_pressure;BME280_temperature;BME280_humidity;BME280_pressure;Samples;Min_cycle;Max_cycle;Signal;HPM_P1;HPM_P2
2023/01/31 00:00:56;;;;;;;7.72;2.05;;;4.10;86.70;;;;;;5081742;28;20039;-77
2023/01/31 00:03:22;;;;;;;10.23;2.20;;;4.10;86.70;;;;;;5078988;27;20110;-77
2023/01/31 00:05:47;;;;;;;7.97;2.10;;;4.10;86.70;;;;;;5066534;28;20406;-76
2023/01/31 00:08:14;;;;;;;6.97;1.98;;;4.10;86.70;;;;;;5082620;28;20039;-77
2023/01/31 00:10:39;;;;;;;6.47;2.05;;;4.10;86.80;;;;;;5066236;27;20035;-76
2023/01/31 00:13:05;;;;;;;8.43;1.90;;;4.10;86.80;;;;;;5085116;27;20042;-77
2023/01/31 00:15:31;;;;;;;12.65;2.65;;;4.10;86.80;;;;;;5080581;28;20646;-77
2023/01/31 00:17:56;;;;;;;9.00;2.10;;;4.10;86.80;;;;;;5100070;27;20122;-76
2023/01/31 00:20:22;;;;;;;14.57;2.58;;;4.10;86.80;;;;;;5082121;28;20096;-76
2023/01/31 00:22:47;;;;;;;9.60;2.65;;;4.10;86.80;;;;;;5085943;28;20085;-77
2023/01/31 00:25:13;;;;;;;9.95;2.63;;;4.00;86.90;;;;;;5082035;28;20043;-77
2023/01/31 00:27:38;;;;;;;11.63;2.40;;;4.00;86.90;;;;;;5080295;28;20044;-76
2023/01/31 00:30:04;;;;;;;6.07;2.42;;;4.00;86.90;;;;;;5051728;28;20092;-77
2023/01/31 00:32:30;;;;;;;10.70;2.58;;;4.00;86.80;;;;;;5045580;28;20518;-77
2023/01/31 00:34:55;;;;;;;8.15;2.65;;;4.00;86.90;;;;;;5064741;28;20046;-77
2023/01/31 00:37:21;;;;;;;7.75;2.10;;;4.00;86.90;;;;;;5055368;28;20040;-78
2023/01/31 00:39:47;;;;;;;8.38;2.30;;;4.00;86.90;;;;;;5044986;28;20539;-77
2023/01/31 00:42:12;;;;;;;10.65;2.10;;;3.90;86.90;;;;;;5061112;28;20204;-77
2023/01/31 00:44:38;;;;;;;9.88;2.53;;;4.00;87.00;;;;;;5057980;28;20101;-75
2023/01/31 00:47:03;;;;;;;6.95;1.80;;;3.90;87.00;;;;;;5040205;28;20032;-76
2023/01/31 00:49:29;;;;;;;8.88;2.25;;;4.00;87.10;;;;;;5054745;28;20040;-77
2023/01/31 00:51:54;;;;;;;7.53;2.08;;;3.90;87.00;;;;;;5059010;28;20036;-76
2023/01/31 00:54:20;;;;;;;10.45;2.15;;;3.90;87.10;;;;;;5076586;28;20038;-77
2023/01/31 00:56:45;;;;;;;9.68;2.10;;;3.90;87.10;;;;;;5039229;28;20032;-76
2023/01/31 00:59:11;;;;;;;7.57;2.38;;;3.90;87.20;;;;;;5059309;28;20032;-76
2023/01/31 01:01:36;;;;;;;12.27;2.35;;;3.90;87.20;;;;;;5057470;28;20042;-77
2023/01/31 01:04:02;;;;;;;13.20;2.53;;;3.90;87.20;;;;;;5059479;28;20066;-78
2023/01/31 01:06:27;;;;;;;6.10;2.15;;;3.80;87.20;;;;;;5056529;28;20766;-77
2023/01/31 01:08:54;;;;;;;7.95;2.25;;;3.80;87.20;;;;;;5043875;28;20047;-76
2023/01/31 01:11:27;;;;;;;6.72;1.75;;;3.80;87.20;;;;;;5056307;28;20059;-77
2023/01/31 01:13:52;;;;;;;12.73;2.20;;;3.80;87.30;;;;;;5056858;28;20130;-77
2023/01/31 01:16:22;;;;;;;5.95;2.08;;;3.80;88.10;;;;;;5043451;28;20088;-76
2023/01/31 01:18:49;;;;;;;6.22;1.88;;;3.80;87.40;;;;;;5043825;28;20087;-76
2023/01/31 01:21:16;;;;;;;7.25;1.60;;;3.70;87.40;;;;;;5042685;28;20391;-77
2023/01/31 01:23:42;;;;;;;10.75;2.30;;;3.70;87.50;;;;;;5057545;28;20035;-77
2023/01/31 01:26:15;;;;;;;5.65;2.13;;;3.70;87.50;;;;;;5060827;28;20405;-77
2023/01/31 01:28:41;;;;;;;7.35;2.13;;;3.60;87.50;;;;;;5042053;28;20123;-77
2023/01/31 01:31:07;;;;;;;7.63;1.77;;;3.60;87.50;;;;;;5068174;28;20609;-77
2023/01/31 01:33:33;;;;;;;11.38;2.40;;;3.60;87.50;;;;;;5058289;28;20894;-77
2023/01/31 01:36:03;;;;;;;8.32;2.20;;;3.60;87.60;;;;;;5077479;28;20051;-77
2023/01/31 01:38:29;;;;;;;8.10;2.08;;;3.60;87.60;;;;;;5079673;28;20044;-77
2023/01/31 01:40:54;;;;;;;5.97;2.40;;;3.50;87.60;;;;;;5062185;28;20096;-78
2023/01/31 01:43:20;;;;;;;11.13;2.38;;;3.50;87.60;;;;;;5062080;27;20063;-77
2023/01/31 01:45:46;;;;;;;7.35;1.88;;;3.50;87.70;;;;;;5048944;28;20624;-76
2023/01/31 01:48:12;;;;;;;6.38;1.83;;;3.50;88.50;;;;;;5070752;28;20035;-77
2023/01/31 01:50:40;;;;;;;6.15;2.10;;;3.40;87.60;;;;;;5080065;27;20760;-77
2023/01/31 01:53:12;;;;;;;7.38;1.88;;;3.40;87.70;;;;;;5067428;28;20040;-76
2023/01/31 01:55:41;;;;;;;8.38;1.92;;;3.40;87.80;;;;;;5057751;28;20498;-76
2023/01/31 01:58:20;;;;;;;7.25;1.65;;;3.40;87.80;;;;;;5077247;28;20501;-76
2023/01/31 02:00:45;;;;;;;8.40;2.58;;;3.40;87.90;;;;;;5069915;28;20065;-77
2023/01/31 02:03:11;;;;;;;5.28;1.75;;;3.40;87.90;;;;;;5081752;28;20161;-77
2023/01/31 02:05:42;;;;;;;11.93;2.28;;;3.40;88.30;;;;;;5080872;28;20040;-77
2023/01/31 02:08:09;;;;;;;7.72;2.22;;;3.40;88.00;;;;;;5063912;28;20567;-76
2023/01/31 02:10:37;;;;;;;10.77;1.98;;;3.30;87.90;;;;;;5078123;28;20666;-75
2023/01/31 02:13:02;;;;;;;9.15;3.03;;;3.30;87.90;;;;;;5078956;28;20028;-77
2023/01/31 02:15:28;;;;;;;6.60;2.05;;;3.30;87.90;;;;;;5078391;28;20541;-76
2023/01/31 02:17:54;;;;;;;11.30;2.50;;;3.30;88.00;;;;;;5081594;28;20031;-76
2023/01/31 02:20:43;;;;;;;6.32;2.25;;;3.30;88.00;;;;;;5046005;28;20043;-77
2023/01/31 02:23:11;;;;;;;12.02;3.88;;;3.30;88.10;;;;;;5078829;28;20077;-77
2023/01/31 02:26:01;;;;;;;11.57;2.30;;;3.30;88.10;;;;;;5095893;28;20418;-77
2023/01/31 02:28:36;;;;;;;6.28;1.60;;;3.30;88.20;;;;;;5095806;28;20035;-77
2023/01/31 02:31:20;;;;;;;4.93;1.70;;;3.30;88.10;;;;;;5076804;28;20043;-77
2023/01/31 02:33:56;;;;;;;9.57;1.83;;;3.30;88.20;;;;;;5094171;27;20032;-76
2023/01/31 02:36:56;;;;;;;9.10;1.80;;;3.30;88.20;;;;;;5077968;27;20050;-77
2023/01/31 02:39:56;;;;;;;4.93;2.55;;;3.30;88.30;;;;;;5095961;27;20649;-77
2023/01/31 02:42:26;;;;;;;6.03;2.23;;;3.30;88.40;;;;;;5065790;28;20031;-78
2023/01/31 02:44:58;;;;;;;4.50;1.85;;;3.30;88.20;;;;;;5077651;28;20036;-77
2023/01/31 02:47:40;;;;;;;7.93;1.60;;;3.30;88.40;;;;;;5046843;28;20593;-77
2023/01/31 02:50:24;;;;;;;3.90;1.70;;;3.30;88.50;;;;;;5080487;28;20040;-77
2023/01/31 02:52:55;;;;;;;4.38;1.77;;;3.30;88.40;;;;;;5097382;28;20089;-77
2023/01/31 02:58:09;;;;;;;5.30;1.58;;;3.30;88.40;;;;;;5065965;28;20042;-77
2023/01/31 03:00:36;;;;;;;7.38;1.67;;;3.30;88.40;;;;;;5078397;28;20058;-78
2023/01/31 03:03:38;;;;;;;4.00;1.77;;;3.30;88.40;;;;;;5077238;28;20036;-78
2023/01/31 03:06:28;;;;;;;7.88;2.20;;;3.30;88.70;;;;;;5060973;28;20062;-78
2023/01/31 03:09:20;;;;;;;11.93;2.00;;;3.30;88.60;;;;;;5076635;28;20458;-77
2023/01/31 03:12:08;;;;;;;8.43;1.98;;;3.30;88.70;;;;;;5062903;28;20067;-77
2023/01/31 03:15:09;;;;;;;9.75;2.05;;;3.30;88.60;;;;;;5079356;28;20035;-76
2023/01/31 03:17:51;;;;;;;11.13;1.92;;;3.30;88.70;;;;;;5091259;28;20032;-77
2023/01/31 03:20:23;;;;;;;6.05;1.45;;;3.30;88.60;;;;;;5082352;27;20063;-77
2023/01/31 03:23:21;;;;;;;12.00;2.33;;;3.30;88.70;;;;;;5071366;28;20038;-77
2023/01/31 03:25:47;;;;;;;10.57;2.10;;;3.30;88.70;;;;;;5082256;28;20108;-77
2023/01/31 03:28:16;;;;;;;6.13;1.67;;;3.30;88.60;;;;;;5064004;28;20027;-78
2023/01/31 03:30:44;;;;;;;9.63;2.08;;;3.30;88.70;;;;;;5066448;28;20040;-77
2023/01/31 03:33:20;;;;;;;8.85;2.17;;;3.30;88.70;;;;;;5064521;28;20039;-77
2023/01/31 03:35:48;;;;;;;4.80;1.63;;;3.20;88.70;;;;;;5064964;28;20112;-76
2023/01/31 03:38:18;;;;;;;8.20;2.42;;;3.20;88.70;;;;;;5047019;28;20039;-77
2023/01/31 03:40:56;;;;;;;8.63;1.98;;;3.20;88.70;;;;;;5064475;28;20051;-78
2023/01/31 03:43:32;;;;;;;9.85;1.83;;;3.20;88.80;;;;;;5049510;28;20195;-77
2023/01/31 03:46:08;;;;;;;4.32;1.90;;;3.20;88.80;;;;;;5065046;28;20037;-77
2023/01/31 03:48:38;;;;;;;6.78;2.30;;;3.20;88.90;;;;;;5066662;28;20036;-76
2023/01/31 03:51:06;;;;;;;11.57;2.60;;;3.20;88.90;;;;;;5065401;28;20050;-78
2023/01/31 03:53:45;;;;;;;9.90;2.22;;;3.20;88.90;;;;;;5073005;28;20048;-77
2023/01/31 03:56:20;;;;;;;7.22;1.70;;;3.20;89.00;;;;;;5066034;28;20082;-77
2023/01/31 03:58:53;;;;;;;8.20;1.88;;;3.20;89.00;;;;;;5046772;28;20044;-78
2023/01/31 04:01:18;;;;;;;4.43;1.63;;;3.20;89.00;;;;;;5052831;28;20674;-77
2023/01/31 04:03:45;;;;;;;9.02;1.98;;;3.20;89.00;;;;;;5056502;28;20498;-78
2023/01/31 04:06:10;;;;;;;6.45;1.52;;;3.20;89.00;;;;;;5080267;28;20503;-77
2023/01/31 04:08:36;;;;;;;11.50;2.10;;;3.20;89.10;;;;;;5067346;28;20141;-77
2023/01/31 04:11:05;;;;;;;8.15;1.95;;;3.20;89.10;;;;;;5054057;28;20066;-79
2023/01/31 04:13:30;;;;;;;5.30;1.58;;;3.10;89.10;;;;;;5062367;28;20067;-78
2023/01/31 04:15:56;;;;;;;14.57;1.90;;;3.20;89.10;;;;;;5060809;28;20502;-79
2023/01/31 04:18:21;;;;;;;8.35;1.70;;;3.10;89.10;;;;;;5068667;28;20036;-78
2023/01/31 04:20:47;;;;;;;9.38;1.55;;;3.10;89.10;;;;;;5063148;28;20071;-78
2023/01/31 04:23:12;;;;;;;8.55;1.77;;;3.10;88.60;;;;;;5047788;28;20031;-77
2023/01/31 04:25:38;;;;;;;9.85;1.88;;;3.00;89.00;;;;;;5065678;28;20028;-78
2023/01/31 04:28:03;;;;;;;7.32;1.83;;;3.00;89.10;;;;;;5060337;28;20204;-77
2023/01/31 04:30:29;;;;;;;7.95;2.17;;;3.00;89.20;;;;;;5052323;28;20588;-78
2023/01/31 04:32:54;;;;;;;13.43;2.78;;;3.00;89.30;;;;;;5042993;28;20036;-78
2023/01/31 04:35:20;;;;;;;7.57;2.65;;;3.00;89.20;;;;;;5068116;28;20085;-78
2023/01/31 04:37:45;;;;;;;7.82;2.25;;;3.00;89.20;;;;;;5048850;28;20097;-77
2023/01/31 04:40:14;;;;;;;9.13;2.42;;;3.00;89.30;;;;;;5049509;28;20040;-77
2023/01/31 04:42:39;;;;;;;6.50;2.75;;;3.00;89.30;;;;;;5032168;28;20453;-76
2023/01/31 04:45:05;;;;;;;6.80;2.03;;;3.00;89.30;;;;;;5063144;28;20036;-77
2023/01/31 04:47:31;;;;;;;8.45;2.40;;;2.90;89.20;;;;;;5059346;28;20115;-76
2023/01/31 04:49:57;;;;;;;9.80;2.13;;;2.90;89.20;;;;;;5065375;28;20427;-77
2023/01/31 04:52:23;;;;;;;11.90;2.33;;;2.90;89.20;;;;;;5062034;28;20028;-77
2023/01/31 04:54:49;;;;;;;7.43;2.78;;;2.90;89.30;;;;;;5081090;28;20036;-77
2023/01/31 04:57:14;;;;;;;8.13;2.60;;;2.90;89.40;;;;;;5075820;28;20112;-75
2023/01/31 04:59:40;;;;;;;6.97;2.30;;;2.90;89.40;;;;;;5049333;28;20586;-76
2023/01/31 05:02:05;;;;;;;17.90;3.35;;;2.80;89.30;;;;;;5075670;28;20039;-76
2023/01/31 05:04:31;;;;;;;9.07;2.35;;;2.80;89.30;;;;;;5040923;28;20060;-77
2023/01/31 05:06:57;;;;;;;8.18;2.50;;;2.80;89.40;;;;;;5060630;28;20036;-78
2023/01/31 05:09:23;;;;;;;10.43;2.92;;;2.80;89.30;;;;;;5060977;28;20113;-76
2023/01/31 05:11:49;;;;;;;8.30;2.38;;;2.80;89.50;;;;;;5074901;28;20027;-77
2023/01/31 05:14:15;;;;;;;13.23;1.83;;;2.70;89.40;;;;;;5047354;28;20036;-77
2023/01/31 05:16:44;;;;;;;12.07;2.30;;;2.70;89.40;;;;;;5059513;28;20043;-77
2023/01/31 05:19:10;;;;;;;9.05;2.40;;;2.70;89.50;;;;;;5059051;28;20058;-75
2023/01/31 05:21:53;;;;;;;7.53;2.00;;;2.70;89.50;;;;;;5061320;28;21003;-76
2023/01/31 05:24:21;;;;;;;12.43;2.40;;;2.70;89.50;;;;;;5047283;28;20089;-76
2023/01/31 05:26:49;;;;;;;11.23;1.92;;;2.70;89.50;;;;;;5044034;28;20483;-77
2023/01/31 05:29:15;;;;;;;33.72;9.52;;;2.60;89.50;;;;;;5046648;28;20620;-77
2023/01/31 05:31:40;;;;;;;10.52;2.72;;;2.60;89.50;;;;;;5072179;28;20047;-77
2023/01/31 05:34:07;;;;;;;6.78;2.15;;;2.60;89.60;;;;;;5065568;28;20323;-77
2023/01/31 05:36:33;;;;;;;15.40;6.40;;;2.60;89.60;;;;;;5079925;28;20047;-76
2023/01/31 05:38:58;;;;;;;6.78;2.20;;;2.60;89.70;;;;;;5064897;28;20338;-77
2023/01/31 05:41:24;;;;;;;8.25;2.80;;;2.60;89.60;;;;;;5065060;28;20036;-76
2023/01/31 05:43:49;;;;;;;15.82;5.07;;;2.60;89.70;;;;;;5101406;27;20414;-77
2023/01/31 05:46:15;;;;;;;9.35;2.22;;;2.60;89.70;;;;;;5063837;28;20063;-76
2023/01/31 05:48:40;;;;;;;6.07;2.00;;;2.60;90.20;;;;;;5083718;28;20058;-76
2023/01/31 05:51:06;;;;;;;11.25;2.53;;;2.60;89.70;;;;;;5082787;28;20055;-76
2023/01/31 05:53:31;;;;;;;15.23;2.60;;;2.60;89.80;;;;;;5081074;28;20143;-75
2023/01/31 05:55:57;;;;;;;13.82;2.80;;;2.60;89.80;;;;;;5099743;27;20563;-77
2023/01/31 05:58:22;;;;;;;14.70;3.10;;;2.60;89.80;;;;;;5083111;28;20040;-75
2023/01/31 06:00:48;;;;;;;7.90;2.10;;;2.70;89.90;;;;;;5078591;28;20043;-77
2023/01/31 06:03:13;;;;;;;11.00;2.10;;;2.70;89.90;;;;;;5080859;28;20069;-77
2023/01/31 06:05:39;;;;;;;6.55;1.90;;;2.70;89.90;;;;;;5080750;28;20039;-77
2023/01/31 06:08:05;;;;;;;9.50;2.42;;;2.70;89.90;;;;;;5064757;28;20031;-76
2023/01/31 06:10:31;;;;;;;19.88;2.35;;;2.70;90.20;;;;;;5082423;28;20036;-76
2023/01/31 06:12:56;;;;;;;10.30;2.03;;;2.70;89.80;;;;;;5079124;28;20032;-77
2023/01/31 06:15:22;;;;;;;9.88;2.40;;;2.80;89.80;;;;;;5064873;28;20035;-77
2023/01/31 06:17:47;;;;;;;14.18;2.20;;;2.80;89.80;;;;;;5079687;27;20050;-76
2023/01/31 06:20:13;;;;;;;12.10;2.22;;;2.80;89.80;;;;;;5095445;28;20086;-77
2023/01/31 06:22:39;;;;;;;6.65;2.38;;;2.80;89.80;;;;;;5077109;28;20035;-76
2023/01/31 06:25:05;;;;;;;7.75;1.90;;;2.80;89.80;;;;;;5078665;28;20035;-77
2023/01/31 06:27:32;;;;;;;7.28;1.90;;;2.80;89.80;;;;;;5061205;28;20518;-76
2023/01/31 06:29:57;;;;;;;14.40;1.55;;;2.80;89.70;;;;;;5051641;28;20044;-76
2023/01/31 06:32:23;;;;;;;7.18;1.90;;;2.80;89.70;;;;;;5040747;28;20039;-76
2023/01/31 06:34:48;;;;;;;8.20;1.65;;;2.70;89.70;;;;;;5043884;28;20028;-77
2023/01/31 06:37:14;;;;;;;10.48;1.90;;;2.70;89.60;;;;;;5075202;28;20433;-78
2023/01/31 06:39:40;;;;;;;8.65;1.70;;;2.70;89.70;;;;;;5059052;28;20036;-76
2023/01/31 06:42:05;;;;;;;7.25;2.08;;;2.70;89.70;;;;;;5041936;28;20043;-77
2023/01/31 06:44:32;;;;;;;10.90;1.67;;;2.70;89.70;;;;;;5058314;28;20032;-77
2023/01/31 06:46:59;;;;;;;8.07;2.05;;;2.70;89.60;;;;;;5059220;28;20120;-77
2023/01/31 06:49:24;;;;;;;11.05;1.67;;;2.70;89.60;;;;;;5054679;28;20057;-76
2023/01/31 06:51:50;;;;;;;7.38;1.95;;;2.70;89.60;;;;;;5024428;28;20245;-77
2023/01/31 06:54:15;;;;;;;6.93;1.70;;;2.60;89.50;;;;;;5043771;28;20666;-77
2023/01/31 06:56:41;;;;;;;4.65;1.60;;;2.60;89.50;;;;;;5080325;28;20036;-77
2023/01/31 06:59:06;;;;;;;5.68;1.50;;;2.60;89.50;;;;;;5084902;28;20537;-77
2023/01/31 07:01:32;;;;;;;8.40;2.00;;;2.60;89.60;;;;;;5063561;28;20578;-77
2023/01/31 07:03:57;;;;;;;4.72;1.73;;;2.60;89.60;;;;;;5047481;28;20866;-77
2023/01/31 07:06:23;;;;;;;7.45;1.83;;;2.60;89.50;;;;;;5045088;28;20131;-77
2023/01/31 07:08:48;;;;;;;11.38;2.17;;;2.60;89.50;;;;;;5034074;28;20039;-76
2023/01/31 07:11:14;;;;;;;14.30;4.07;;;2.60;89.50;;;;;;5049528;28;20160;-78
2023/01/31 07:13:39;;;;;;;8.77;2.72;;;2.60;89.50;;;;;;5047623;28;20513;-76
2023/01/31 07:16:05;;;;;;;8.77;2.65;;;2.60;89.50;;;;;;5048526;28;20694;-76
2023/01/31 07:18:30;;;;;;;13.85;4.32;;;2.50;89.50;;;;;;5045941;28;20730;-77
2023/01/31 07:20:56;;;;;;;12.32;1.98;;;2.50;89.50;;;;;;5030940;28;21003;-77
2023/01/31 07:23:22;;;;;;;14.48;2.75;;;2.50;89.50;;;;;;5047428;28;20598;-77
2023/01/31 07:25:47;;;;;;;9.02;2.38;;;2.50;89.50;;;;;;5044649;28;20024;-76
2023/01/31 07:28:13;;;;;;;10.93;2.10;;;2.50;89.60;;;;;;5082585;28;20024;-76
2023/01/31 07:30:38;;;;;;;8.93;1.83;;;2.50;89.60;;;;;;5079943;27;20042;-77
2023/01/31 07:33:04;;;;;;;9.13;1.85;;;2.50;89.60;;;;;;5082795;28;20042;-77
2023/01/31 07:35:30;;;;;;;12.63;4.00;;;2.50;89.60;;;;;;5047198;28;20035;-75
2023/01/31 07:37:55;;;;;;;9.32;1.92;;;2.50;89.60;;;;;;5084781;28;20041;-77
2023/01/31 07:40:21;;;;;;;5.25;1.60;;;2.50;89.60;;;;;;5084085;27;20043;-77
2023/01/31 07:42:46;;;;;;;9.27;1.80;;;2.50;89.60;;;;;;5063075;28;20036;-78
2023/01/31 07:45:13;;;;;;;7.50;1.75;;;2.50;89.60;;;;;;5078701;28;20154;-76
2023/01/31 07:47:39;;;;;;;10.73;2.22;;;2.50;89.60;;;;;;5041123;28;20032;-76
2023/01/31 07:50:04;;;;;;;10.07;3.05;;;2.50;89.70;;;;;;5082138;27;20688;-76
2023/01/31 07:52:30;;;;;;;7.28;1.90;;;2.50;89.70;;;;;;5081832;28;20645;-76
2023/01/31 07:54:56;;;;;;;8.55;2.00;;;2.50;89.60;;;;;;5062593;28;20110;-76
2023/01/31 07:57:21;;;;;;;10.73;2.00;;;2.60;89.70;;;;;;5085584;28;20490;-77
2023/01/31 07:59:47;;;;;;;8.68;1.90;;;2.60;89.60;;;;;;5084290;27;20498;-75
2023/01/31 08:04:58;;;;;;;9.55;2.25;;;2.70;89.70;;;;;;5084420;27;20088;-75
2023/01/31 08:07:24;;;;;;;9.13;2.33;;;2.80;89.80;;;;;;5060402;28;20048;-76
2023/01/31 08:09:50;;;;;;;6.00;1.65;;;2.80;89.70;;;;;;5065154;27;20047;-77
2023/01/31 08:12:15;;;;;;;10.45;1.80;;;2.80;89.70;;;;;;5095585;27;20039;-78
2023/01/31 08:14:41;;;;;;;10.38;2.58;;;2.90;89.60;;;;;;5062318;28;20032;-77
2023/01/31 08:17:07;;;;;;;7.20;2.00;;;2.90;89.60;;;;;;5079376;28;20032;-77
2023/01/31 08:19:33;;;;;;;11.40;2.13;;;2.90;89.60;;;;;;5076223;27;20375;-77
2023/01/31 08:21:59;;;;;;;11.77;2.30;;;2.90;89.50;;;;;;5064789;28;20087;-78
2023/01/31 08:24:25;;;;;;;6.80;2.40;;;3.00;89.50;;;;;;5075649;27;20044;-77
2023/01/31 08:26:50;;;;;;;13.98;4.03;;;3.00;89.50;;;;;;5077438;28;20032;-77
2023/01/31 08:29:16;;;;;;;12.00;3.20;;;3.00;90.10;;;;;;5078391;27;20040;-77
2023/01/31 08:31:41;;;;;;;14.05;3.20;;;3.00;89.50;;;;;;5078227;28;20042;-77
2023/01/31 08:34:07;;;;;;;17.48;4.68;;;3.10;89.50;;;;;;5077930;27;20610;-76
2023/01/31 08:36:34;;;;;;;13.25;4.53;;;3.10;89.50;;;;;;5066226;28;20031;-75
2023/01/31 08:39:00;;;;;;;14.82;4.53;;;3.10;89.40;;;;;;5079046;28;20047;-77
2023/01/31 08:41:25;;;;;;;10.45;4.70;;;3.20;89.50;;;;;;5078774;28;20063;-76
2023/01/31 08:43:51;;;;;;;13.70;6.10;;;3.20;89.40;;;;;;5062101;27;20549;-77
2023/01/31 08:46:17;;;;;;;15.00;5.03;;;3.20;89.30;;;;;;5082202;28;20513;-77
2023/01/31 08:48:43;;;;;;;17.85;6.28;;;3.20;89.30;;;;;;5078812;28;20444;-77
2023/01/31 08:51:10;;;;;;;24.30;6.72;;;3.20;89.30;;;;;;5067757;28;20039;-76
2023/01/31 08:53:39;;;;;;;17.42;4.72;;;3.20;89.30;;;;;;5079302;28;20047;-77
2023/01/31 08:56:06;;;;;;;12.95;4.28;;;3.20;89.30;;;;;;5082131;28;20044;-77
2023/01/31 08:58:32;;;;;;;11.80;3.00;;;3.20;89.30;;;;;;5060412;28;20118;-77
2023/01/31 09:01:01;;;;;;;9.68;3.25;;;3.30;89.30;;;;;;5058396;28;20119;-75
2023/01/31 09:03:27;;;;;;;9.73;3.28;;;3.30;89.30;;;;;;5079672;28;20044;-77
2023/01/31 09:05:52;;;;;;;8.80;2.60;;;3.30;89.30;;;;;;5061510;27;20115;-76
2023/01/31 09:08:18;;;;;;;7.65;2.17;;;3.40;89.30;;;;;;5078760;27;20115;-77
2023/01/31 09:10:50;;;;;;;12.07;3.80;;;3.40;89.30;;;;;;5063612;28;20048;-77
2023/01/31 09:13:15;;;;;;;11.55;3.17;;;3.40;89.20;;;;;;5077478;28;20035;-78
2023/01/31 09:15:41;;;;;;;6.68;2.60;;;3.40;89.20;;;;;;5077262;28;20905;-76
2023/01/31 09:18:06;;;;;;;5.70;1.80;;;3.50;89.20;;;;;;5079668;28;20530;-76
2023/01/31 09:20:32;;;;;;;9.77;2.17;;;3.50;89.10;;;;;;5062587;28;20040;-76
2023/01/31 09:22:57;;;;;;;9.57;2.90;;;3.50;89.10;;;;;;5076643;27;20023;-78
2023/01/31 09:25:23;;;;;;;11.60;4.07;;;3.60;89.10;;;;;;5097191;27;20038;-77
2023/01/31 09:27:51;;;;;;;20.15;6.47;;;3.60;89.00;;;;;;5077759;27;20134;-76
2023/01/31 09:30:17;;;;;;;22.42;9.85;;;3.70;89.00;;;;;;5075370;28;20528;-76
2023/01/31 09:32:44;;;;;;;13.98;4.97;;;3.70;89.10;;;;;;5064065;28;20039;-76
2023/01/31 09:35:10;;;;;;;8.85;3.83;;;3.70;88.90;;;;;;5079495;28;20043;-75
2023/01/31 09:37:36;;;;;;;12.93;3.40;;;3.80;88.90;;;;;;5081181;28;20036;-76
2023/01/31 09:40:03;;;;;;;4.70;2.53;;;3.80;88.80;;;;;;5081459;28;20445;-77
2023/01/31 09:42:32;;;;;;;14.77;3.28;;;3.90;88.80;;;;;;5063877;27;20077;-77
2023/01/31 09:45:23;;;;;;;8.15;2.60;;;3.90;88.70;;;;;;5079478;27;20024;-77
2023/01/31 09:47:50;;;;;;;8.50;2.90;;;4.00;88.70;;;;;;5063261;28;20028;-76
2023/01/31 09:50:35;;;;;;;8.13;2.90;;;4.00;88.60;;;;;;5067621;28;20092;-78
2023/01/31 09:53:01;;;;;;;9.35;2.53;;;4.10;88.40;;;;;;5092389;27;20050;-78
2023/01/31 09:55:41;;;;;;;6.00;2.20;;;4.10;88.30;;;;;;5058823;28;20587;-78
2023/01/31 09:58:17;;;;;;;13.38;3.15;;;4.10;88.20;;;;;;5062537;28;20470;-77
2023/01/31 10:00:59;;;;;;;10.70;4.25;;;4.20;88.30;;;;;;5055279;28;20043;-77
2023/01/31 10:03:37;;;;;;;16.75;7.93;;;4.40;88.40;;;;;;5074633;28;20371;-78
2023/01/31 10:06:27;;;;;;;35.47;14.63;;;4.50;88.40;;;;;;5073478;28;20387;-78
2023/01/31 10:09:13;;;;;;;13.75;4.57;;;4.70;88.10;;;;;;5077268;28;20147;-78
2023/01/31 10:11:55;;;;;;;17.08;5.20;;;4.90;88.10;;;;;;5062393;28;20077;-78
2023/01/31 10:14:34;;;;;;;34.83;12.65;;;5.00;88.00;;;;;;5079516;28;20024;-75
2023/01/31 10:17:10;;;;;;;17.73;5.68;;;5.20;87.80;;;;;;5093506;27;20047;-77
2023/01/31 10:19:42;;;;;;;9.65;3.65;;;5.40;87.60;;;;;;5079208;28;20687;-76
2023/01/31 10:22:11;;;;;;;8.27;3.45;;;5.50;87.20;;;;;;5070071;28;20044;-78
2023/01/31 10:24:43;;;;;;;8.00;2.95;;;5.50;86.90;;;;;;5063460;28;20035;-77
2023/01/31 10:27:18;;;;;;;15.85;4.97;;;5.50;86.60;;;;;;5061580;28;20506;-77
2023/01/31 10:29:46;;;;;;;7.63;3.35;;;5.60;86.40;;;;;;5057524;28;20104;-77
2023/01/31 10:32:25;;;;;;;8.98;3.40;;;5.60;86.30;;;;;;5071250;28;20116;-75
2023/01/31 10:34:55;;;;;;;8.40;3.42;;;5.60;86.00;;;;;;5071448;28;20031;-76
2023/01/31 10:37:46;;;;;;;10.03;3.57;;;5.60;86.00;;;;;;5046650;28;20752;-78
2023/01/31 10:40:14;;;;;;;8.13;2.92;;;5.60;85.70;;;;;;5045541;28;20345;-77
2023/01/31 10:42:41;;;;;;;9.20;3.95;;;5.50;85.80;;;;;;5056932;28;21098;-78
2023/01/31 10:45:12;;;;;;;9.68;3.58;;;5.50;85.80;;;;;;5071174;28;20118;-78
2023/01/31 10:47:51;;;;;;;14.27;3.30;;;5.50;85.70;;;;;;5088323;28;20043;-77
2023/01/31 10:50:18;;;;;;;14.20;6.30;;;5.50;85.70;;;;;;5064610;28;20048;-77
2023/01/31 10:52:46;;;;;;;7.32;3.03;;;5.50;85.80;;;;;;5037411;28;20535;-77
2023/01/31 10:55:25;;;;;;;14.93;4.20;;;5.50;85.60;;;;;;5076415;28;20051;-77
2023/01/31 10:57:50;;;;;;;9.70;3.03;;;5.50;85.40;;;;;;5073231;28;20043;-77
2023/01/31 11:00:19;;;;;;;7.30;3.08;;;5.40;85.40;;;;;;5040311;28;20040;-76
2023/01/31 11:02:44;;;;;;;9.18;3.72;;;5.50;85.50;;;;;;5055256;28;20101;-76
2023/01/31 11:05:14;;;;;;;8.90;3.55;;;5.40;85.30;;;;;;5057710;28;20040;-75
2023/01/31 11:07:40;;;;;;;9.75;3.50;;;5.40;85.30;;;;;;5027100;28;20040;-77
2023/01/31 11:10:23;;;;;;;11.73;3.45;;;5.40;85.40;;;;;;5076198;28;20084;-75
2023/01/31 11:13:03;;;;;;;16.38;4.30;;;5.40;85.20;;;;;;5077704;28;20032;-76
2023/01/31 11:15:34;;;;;;;10.25;4.75;;;5.40;85.30;;;;;;5077088;28;20414;-77
2023/01/31 11:18:00;;;;;;;8.60;4.10;;;5.40;85.40;;;;;;5075944;28;20658;-77
2023/01/31 11:20:34;;;;;;;12.75;4.43;;;5.40;85.40;;;;;;5076652;28;20036;-77
2023/01/31 11:23:00;;;;;;;12.90;4.25;;;5.40;85.40;;;;;;5078274;28;20518;-77
2023/01/31 11:25:27;;;;;;;11.40;3.75;;;5.40;85.40;;;;;;5062140;28;20123;-77
2023/01/31 11:27:53;;;;;;;10.35;3.83;;;5.40;85.30;;;;;;5078251;28;20032;-76
2023/01/31 11:30:29;;;;;;;7.05;4.00;;;5.40;85.40;;;;;;5044363;28;20050;-77
2023/01/31 11:32:54;;;;;;;9.43;4.25;;;5.40;85.30;;;;;;5041515;28;20116;-76
2023/01/31 11:35:21;;;;;;;9.88;4.40;;;5.50;85.40;;;;;;5041070;28;20150;-77
2023/01/31 11:37:52;;;;;;;11.68;4.32;;;5.40;85.30;;;;;;5056163;28;20064;-77
2023/01/31 11:40:25;;;;;;;12.00;3.70;;;5.40;85.30;;;;;;5054938;28;20043;-75
2023/01/31 11:42:54;;;;;;;12.73;3.70;;;5.40;85.30;;;;;;5058114;28;20050;-77
2023/01/31 11:45:22;;;;;;;9.13;3.00;;;5.40;85.20;;;;;;5034590;28;20469;-77
2023/01/31 11:47:55;;;;;;;9.95;3.40;;;5.40;85.20;;;;;;5045526;28;20039;-77
2023/01/31 11:50:30;;;;;;;12.98;5.38;;;5.40;85.10;;;;;;5024778;28;20044;-77
2023/01/31 11:52:57;;;;;;;11.60;4.50;;;5.40;85.10;;;;;;5059690;28;20069;-77
2023/01/31 11:55:22;;;;;;;12.65;3.88;;;5.40;85.10;;;;;;5061283;28;20034;-76
2023/01/31 11:57:53;;;;;;;12.27;4.28;;;5.40;85.00;;;;;;5046146;28;20470;-77
2023/01/31 12:00:26;;;;;;;14.45;3.78;;;5.40;85.00;;;;;;5049350;28;20119;-77
2023/01/31 12:03:03;;;;;;;12.63;4.72;;;5.40;85.00;;;;;;5071384;28;20067;-77
2023/01/31 12:05:44;;;;;;;10.35;3.85;;;5.40;84.90;;;;;;5043037;28;20032;-77
2023/01/31 12:08:26;;;;;;;10.55;3.45;;;5.30;84.80;;;;;;5058664;28;20115;-74
2023/01/31 12:10:52;;;;;;;10.50;4.03;;;5.40;84.90;;;;;;5059788;28;20040;-76
2023/01/31 12:13:18;;;;;;;10.30;4.90;;;5.30;84.80;;;;;;5058811;28;20036;-78
2023/01/31 12:15:55;;;;;;;13.35;4.00;;;5.40;84.90;;;;;;5029123;28;20100;-77
2023/01/31 12:18:29;;;;;;;11.25;4.05;;;5.40;84.90;;;;;;5060044;28;20051;-77
2023/01/31 12:21:15;;;;;;;8.55;4.07;;;5.40;84.90;;;;;;5061227;28;20522;-76
2023/01/31 12:23:58;;;;;;;11.27;4.40;;;5.30;84.70;;;;;;5042103;28;20055;-75
2023/01/31 12:26:48;;;;;;;14.43;5.25;;;5.30;84.80;;;;;;5076317;28;20035;-75
2023/01/31 12:29:53;;;;;;;12.77;4.15;;;5.30;84.70;;;;;;5039429;28;20181;-77
2023/01/31 12:32:18;;;;;;;14.93;4.65;;;5.30;84.70;;;;;;5039639;28;20040;-78
2023/01/31 12:35:11;;;;;;;11.18;4.35;;;5.30;85.70;;;;;;5075373;28;20541;-78
2023/01/31 12:37:56;;;;;;;12.57;3.85;;;5.30;84.80;;;;;;5073828;28;20569;-78
2023/01/31 12:40:28;;;;;;;10.25;3.90;;;5.30;84.90;;;;;;5075790;28;20040;-78
2023/01/31 12:42:56;;;;;;;9.60;4.07;;;5.30;84.80;;;;;;5076107;28;20036;-75
2023/01/31 12:45:46;;;;;;;11.65;4.78;;;5.30;84.80;;;;;;5043028;28;20034;-77
2023/01/31 12:48:24;;;;;;;13.52;4.25;;;5.30;84.80;;;;;;5075539;28;20047;-78
2023/01/31 12:51:17;;;;;;;12.00;4.63;;;5.30;84.90;;;;;;5077301;28;20533;-74
2023/01/31 12:53:56;;;;;;;10.07;4.18;;;5.30;84.80;;;;;;5076418;28;20047;-78
2023/01/31 12:56:30;;;;;;;10.63;4.35;;;5.30;84.90;;;;;;5056167;28;20771;-77
2023/01/31 12:59:17;;;;;;;10.63;4.45;;;5.30;84.90;;;;;;5059959;28;20095;-77
2023/01/31 13:01:59;;;;;;;11.35;4.15;;;5.40;84.90;;;;;;5075647;28;20036;-76
2023/01/31 13:04:55;;;;;;;9.77;4.57;;;5.40;84.90;;;;;;5043373;28;20039;-77
2023/01/31 13:07:26;;;;;;;17.52;7.15;;;5.40;84.90;;;;;;5056004;28;20043;-77
2023/01/31 13:09:53;;;;;;;;;;;5.40;84.90;;;;;;5061944;28;20111;-77
2023/01/31 13:12:20;;;;;;;16.67;5.97;;;5.40;84.80;;;;;;5038219;28;19949;-78